createdAt,value
2018-09-17T00:01:07.096Z,14.60
2018-09-17T00:06:10.388Z,14.60
2018-09-17T00:11:13.663Z,14.20
2018-09-17T00:16:17.019Z,14.20
2018-09-17T00:21:20.329Z,14.20
2018-09-17T00:26:23.594Z,14.00
2018-09-17T00:31:26.836Z,13.80
2018-09-17T00:41:33.136Z,13.70
2018-09-17T00:46:36.404Z,13.60
2018-09-17T00:51:39.717Z,13.60
2018-09-17T01:01:52.312Z,13.40
2018-09-17T01:06:55.624Z,13.40
2018-09-17T01:11:59.620Z,13.30
2018-09-17T01:17:02.916Z,13.40
2018-09-17T01:22:06.184Z,13.40
2018-09-17T01:27:09.479Z,13.40
2018-09-17T01:32:12.731Z,13.50
2018-09-17T01:37:16.024Z,13.30
2018-09-17T01:42:19.332Z,13.10
2018-09-17T01:47:22.607Z,12.90
2018-09-17T01:52:25.906Z,12.90
2018-09-17T01:57:29.165Z,12.90
2018-09-17T02:02:32.885Z,12.80
2018-09-17T02:07:36.171Z,12.90
2018-09-17T02:12:39.456Z,12.90
2018-09-17T02:17:42.753Z,12.70
2018-09-17T02:22:46.068Z,12.80
2018-09-17T02:27:49.335Z,12.60
2018-09-17T02:32:52.606Z,12.30
2018-09-17T02:42:58.912Z,12.20
2018-09-17T02:48:02.176Z,12.10
2018-09-17T02:53:05.460Z,12.10
2018-09-17T02:58:08.757Z,12.20
2018-09-17T03:08:15.011Z,12.20
2018-09-17T03:13:18.366Z,12.00
2018-09-17T03:18:34.477Z,12.00
2018-09-17T03:23:38.514Z,12.00
2018-09-17T03:28:41.772Z,12.00
2018-09-17T03:33:45.062Z,12.00
2018-09-17T03:38:49.276Z,12.00
2018-09-17T03:43:52.889Z,11.80
2018-09-17T03:48:56.162Z,11.70
2018-09-17T03:53:59.443Z,11.70
2018-09-17T03:59:02.737Z,11.80
2018-09-17T04:04:06.258Z,11.80
2018-09-17T04:09:09.702Z,11.80
2018-09-17T04:14:13.075Z,11.70
2018-09-17T04:19:16.497Z,11.80
2018-09-17T04:24:19.906Z,11.80
2018-09-17T04:29:23.275Z,11.70
2018-09-17T04:34:26.564Z,11.70
2018-09-17T04:39:29.910Z,11.60
2018-09-17T04:44:33.168Z,11.60
2018-09-17T04:49:36.411Z,11.60
2018-09-17T04:59:42.716Z,11.40
2018-09-17T05:09:49.109Z,11.60
2018-09-17T05:14:52.371Z,11.70
2018-09-17T05:19:55.612Z,11.70
2018-09-17T05:24:58.874Z,11.80
2018-09-17T05:30:02.132Z,11.90
2018-09-17T05:35:05.513Z,12.00
2018-09-17T05:40:08.771Z,12.00
2018-09-17T05:45:12.022Z,12.30
2018-09-17T05:50:15.283Z,12.70
2018-09-17T05:55:18.539Z,12.80
2018-09-17T06:00:21.807Z,13.20
2018-09-17T06:05:25.069Z,13.70
2018-09-17T06:10:28.321Z,14.30
2018-09-17T06:15:31.570Z,14.70
2018-09-17T06:20:34.837Z,14.90
2018-09-17T06:25:38.091Z,15.30
2018-09-17T06:30:44.275Z,16.30
2018-09-17T06:35:47.571Z,16.50
2018-09-17T06:40:50.839Z,16.60
2018-09-17T06:45:54.098Z,17.10
2018-09-17T06:50:57.372Z,17.10
2018-09-17T06:56:00.627Z,17.30
2018-09-17T07:01:03.927Z,17.50
2018-09-17T07:06:07.204Z,17.30
2018-09-17T07:11:11.130Z,17.30
2018-09-17T07:16:14.399Z,17.70
2018-09-17T07:21:17.664Z,17.90
2018-09-17T07:26:20.947Z,18.30
2018-09-17T07:31:30.860Z,18.60
2018-09-17T07:36:34.203Z,19.00
2018-09-17T07:41:37.445Z,19.10
2018-09-17T07:46:40.701Z,19.70
2018-09-17T07:51:43.966Z,19.90
2018-09-17T07:56:47.249Z,20.30
2018-09-17T08:01:50.513Z,20.30
2018-09-17T08:06:53.779Z,20.80
2018-09-17T08:11:57.051Z,20.90
2018-09-17T08:17:00.361Z,21.50
2018-09-17T08:22:03.582Z,22.00
2018-09-17T08:27:06.856Z,21.70
2018-09-17T08:32:10.115Z,22.00
2018-09-17T08:37:13.392Z,22.20
2018-09-17T08:42:16.657Z,22.50
2018-09-17T08:47:19.920Z,22.50
2018-09-17T08:52:23.193Z,23.10
2018-09-17T08:57:31.516Z,23.10
2018-09-17T09:02:40.124Z,23.00
2018-09-17T09:07:48.904Z,23.00
2018-09-17T09:12:57.691Z,23.30
2018-09-17T09:18:00.964Z,23.10
2018-09-17T09:23:04.270Z,23.20
2018-09-17T09:28:07.540Z,22.60
2018-09-17T09:33:10.805Z,22.60
2018-09-17T09:38:14.093Z,22.70
2018-09-17T09:43:17.340Z,23.00
2018-09-17T09:48:20.611Z,23.80
2018-09-17T09:53:23.888Z,24.00
2018-09-17T09:58:27.136Z,24.20
2018-09-17T10:03:34.630Z,25.20
2018-09-17T10:09:40.978Z,25.60
2018-09-17T10:14:49.614Z,25.80
2018-09-17T10:19:53.339Z,26.40
2018-09-17T10:24:56.608Z,25.80
2018-09-17T10:29:59.956Z,25.80
2018-09-17T10:35:03.224Z,25.30
2018-09-17T10:40:06.485Z,25.70
2018-09-17T10:45:09.759Z,26.70
2018-09-17T10:50:13.099Z,26.90
2018-09-17T10:55:16.351Z,26.20
2018-09-17T11:00:19.688Z,26.10
2018-09-17T11:05:22.960Z,27.50
2018-09-17T11:10:26.264Z,27.20
2018-09-17T11:15:33.744Z,27.80
2018-09-17T11:20:36.991Z,28.30
2018-09-17T11:25:40.278Z,26.90
2018-09-17T11:30:43.607Z,26.60
2018-09-17T11:35:46.915Z,27.00
2018-09-17T11:40:50.172Z,28.10
2018-09-17T11:45:53.423Z,28.60
2018-09-17T11:50:56.674Z,27.70
2018-09-17T11:55:59.928Z,27.70
2018-09-17T12:01:08.628Z,27.00
2018-09-17T12:06:11.888Z,27.40
2018-09-17T12:11:15.826Z,28.10
2018-09-17T12:16:19.090Z,29.10
2018-09-17T12:21:22.965Z,29.20
2018-09-17T12:26:26.518Z,30.10
2018-09-17T12:31:29.788Z,30.50
2018-09-17T12:36:33.358Z,29.30
2018-09-17T12:41:36.624Z,28.10
2018-09-17T12:46:39.867Z,27.60
2018-09-17T12:51:43.130Z,28.80
2018-09-17T12:56:46.428Z,29.90
2018-09-17T13:01:49.677Z,30.80
2018-09-17T13:06:52.939Z,32.40
2018-09-17T13:11:56.214Z,32.50
2018-09-17T13:16:59.471Z,33.10
2018-09-17T13:22:02.748Z,32.30
2018-09-17T13:27:06.974Z,32.10
2018-09-17T13:32:10.236Z,32.20
2018-09-17T13:37:13.511Z,32.30
2018-09-17T13:42:16.771Z,31.90
2018-09-17T13:47:20.049Z,30.20
2018-09-17T13:52:23.311Z,29.50
2018-09-17T13:57:26.692Z,29.70
2018-09-17T14:02:29.952Z,29.30
2018-09-17T14:07:33.248Z,29.20
2018-09-17T14:12:36.518Z,29.90
2018-09-17T14:17:39.777Z,30.10
2018-09-17T14:22:43.054Z,31.80
2018-09-17T14:27:47.243Z,32.50
2018-09-17T14:33:59.564Z,32.70
2018-09-17T14:39:02.847Z,31.90
2018-09-17T14:44:06.134Z,31.40
2018-09-17T14:49:09.463Z,32.90
2018-09-17T14:54:12.677Z,32.00
2018-09-17T14:59:15.939Z,30.10
2018-09-17T15:04:19.256Z,29.80
2018-09-17T15:09:22.476Z,29.50
2018-09-17T15:14:25.914Z,30.10
2018-09-17T15:19:29.016Z,30.30
2018-09-17T15:24:32.272Z,29.80
2018-09-17T15:29:35.528Z,29.70
2018-09-17T15:34:38.812Z,29.30
2018-09-17T15:39:42.055Z,28.50
2018-09-17T15:44:45.340Z,28.20
2018-09-17T15:49:48.643Z,27.50
2018-09-17T15:54:51.864Z,26.40
2018-09-17T15:59:55.123Z,26.40
2018-09-17T16:04:58.383Z,26.40
2018-09-17T16:10:01.624Z,26.40
2018-09-17T16:15:04.928Z,26.40
2018-09-17T16:20:08.178Z,25.50
2018-09-17T16:25:11.484Z,25.50
2018-09-17T16:30:14.748Z,24.90
2018-09-17T16:35:18.040Z,24.90
2018-09-17T16:40:21.378Z,24.70
2018-09-17T16:45:24.791Z,24.50
2018-09-17T16:50:28.066Z,24.30
2018-09-17T16:55:31.323Z,24.20
2018-09-17T17:00:34.575Z,24.40
2018-09-17T17:05:37.825Z,24.20
2018-09-17T17:10:41.424Z,23.80
2018-09-17T17:15:48.159Z,23.50
2018-09-17T17:20:51.542Z,23.40
2018-09-17T17:25:54.818Z,23.20
2018-09-17T17:30:58.108Z,23.00
2018-09-17T17:36:01.391Z,22.90
2018-09-17T17:41:04.719Z,22.60
2018-09-17T17:46:08.329Z,22.40
2018-09-17T17:51:11.572Z,22.30
2018-09-17T17:56:14.830Z,22.00
2018-09-17T18:01:18.188Z,21.60
2018-09-17T18:06:21.431Z,21.60
2018-09-17T18:11:24.702Z,21.40
2018-09-17T18:16:30.631Z,21.20
2018-09-17T18:21:33.944Z,21.10
2018-09-17T18:26:37.700Z,20.90
2018-09-17T18:41:47.276Z,20.50
2018-09-17T18:46:50.576Z,20.30
2018-09-17T18:51:54.276Z,20.20
2018-09-17T18:56:57.615Z,20.20
2018-09-17T19:17:15.697Z,19.50
2018-09-17T19:22:24.547Z,19.50
2018-09-17T19:29:35.440Z,19.30
2018-09-17T19:34:38.714Z,19.30
2018-09-17T19:39:47.215Z,19.10
2018-09-17T19:44:57.660Z,19.10
2018-09-17T19:50:01.744Z,19.00
2018-09-17T19:55:05.065Z,18.90
2018-09-17T20:00:08.339Z,18.70
2018-09-17T20:05:17.078Z,18.70
2018-09-17T20:10:21.691Z,18.70
2018-09-17T20:15:26.465Z,18.50
2018-09-17T20:20:30.059Z,18.50
2018-09-17T20:25:35.366Z,18.40
2018-09-17T20:30:38.724Z,18.10
2018-09-17T20:35:42.032Z,18.10
2018-09-17T20:40:45.672Z,17.90
2018-09-17T20:45:49.966Z,17.90
2018-09-17T20:50:56.474Z,17.70
2018-09-17T20:56:00.409Z,17.70
2018-09-17T21:01:05.262Z,17.50
2018-09-17T21:06:08.501Z,17.50
2018-09-17T21:11:12.822Z,17.50
2018-09-17T21:16:16.669Z,17.30
2018-09-17T21:21:20.837Z,17.20
2018-09-17T21:26:25.023Z,17.10
2018-09-17T21:31:29.656Z,17.10
2018-09-17T21:36:34.419Z,17.00
2018-09-17T21:41:38.012Z,17.00
2018-09-17T21:46:41.659Z,17.00
2018-09-17T21:51:44.945Z,17.10
2018-09-17T21:56:48.211Z,17.00
2018-09-17T22:01:51.480Z,16.70
2018-09-17T22:06:54.735Z,16.50
2018-09-17T22:17:00.988Z,16.50
2018-09-17T22:22:04.260Z,16.50
2018-09-17T22:27:07.776Z,16.40
2018-09-17T22:42:17.104Z,16.30
2018-09-17T22:47:20.349Z,16.30
2018-09-17T22:52:23.807Z,16.10
2018-09-17T22:57:27.068Z,16.00
2018-09-17T23:02:30.327Z,15.90
2018-09-17T23:07:33.595Z,15.90
2018-09-17T23:12:36.871Z,15.90
2018-09-17T23:22:43.347Z,15.90
2018-09-17T23:27:46.634Z,15.80
2018-09-17T23:32:49.878Z,15.70
2018-09-17T23:37:53.176Z,15.80
2018-09-17T23:47:59.469Z,15.60
2018-09-17T23:53:02.710Z,15.60
2018-09-17T23:58:05.986Z,15.50
